createdAt,value
2023-05-10T00:00:20.739Z,23.71
2023-05-10T00:01:20.774Z,23.73
2023-05-10T00:02:20.835Z,23.75
2023-05-10T00:03:20.972Z,23.76
2023-05-10T00:04:20.957Z,23.77
2023-05-10T00:05:20.971Z,23.79
2023-05-10T00:06:20.996Z,23.79
2023-05-10T00:07:21.053Z,23.80
2023-05-10T00:08:21.111Z,23.79
2023-05-10T00:09:21.153Z,23.80
2023-05-10T00:10:21.207Z,23.80
2023-05-10T00:11:22.867Z,23.80
2023-05-10T00:12:21.273Z,23.79
2023-05-10T00:13:21.366Z,23.79
2023-05-10T00:14:21.305Z,23.79
2023-05-10T00:15:21.324Z,23.80
2023-05-10T00:16:21.393Z,23.79
2023-05-10T00:17:21.368Z,23.79
2023-05-10T00:18:21.401Z,23.78
2023-05-10T00:19:21.399Z,23.78
2023-05-10T00:20:21.421Z,23.77
2023-05-10T00:21:21.456Z,23.77
2023-05-10T00:22:21.447Z,23.77
2023-05-10T00:23:21.467Z,23.76
2023-05-10T00:24:21.471Z,23.76
2023-05-10T00:25:21.485Z,23.77
2023-05-10T00:26:21.509Z,23.76
2023-05-10T00:27:21.544Z,23.75
2023-05-10T00:28:21.528Z,23.76
2023-05-10T00:29:21.562Z,23.75
2023-05-10T00:30:21.567Z,23.75
2023-05-10T00:31:21.574Z,23.75
2023-05-10T00:32:21.702Z,23.74
2023-05-10T00:33:21.598Z,23.74
2023-05-10T00:34:21.610Z,23.75
2023-05-10T00:35:21.613Z,23.75
2023-05-10T00:36:21.627Z,23.76
2023-05-10T00:37:21.630Z,23.75
2023-05-10T00:38:21.649Z,23.75
2023-05-10T00:39:21.670Z,23.74
2023-05-10T00:40:21.687Z,23.73
2023-05-10T00:41:21.695Z,23.73
2023-05-10T00:42:21.704Z,23.72
2023-05-10T00:43:21.723Z,23.72
2023-05-10T00:44:21.738Z,23.72
2023-05-10T00:45:21.820Z,23.72
2023-05-10T00:46:21.931Z,23.71
2023-05-10T00:47:21.970Z,23.71
2023-05-10T00:48:21.983Z,23.71
2023-05-10T00:49:22.058Z,23.70
2023-05-10T00:50:22.140Z,23.69
2023-05-10T00:51:22.188Z,23.70
2023-05-10T00:52:22.256Z,23.70
2023-05-10T00:53:22.320Z,23.69
2023-05-10T00:54:22.392Z,23.69
2023-05-10T00:55:22.465Z,23.68
2023-05-10T00:56:22.536Z,23.69
2023-05-10T00:57:22.597Z,23.68
2023-05-10T00:58:22.673Z,23.68
2023-05-10T00:59:22.739Z,23.68
2023-05-10T01:00:22.800Z,23.68
2023-05-10T01:01:22.914Z,23.67
2023-05-10T01:02:22.955Z,23.67
2023-05-10T01:03:23.110Z,23.67
2023-05-10T01:04:23.051Z,23.67
2023-05-10T01:05:23.176Z,23.66
2023-05-10T01:06:23.186Z,23.67
2023-05-10T01:07:23.255Z,23.67
2023-05-10T01:08:23.322Z,23.66
2023-05-10T01:09:23.407Z,23.66
2023-05-10T01:10:23.452Z,23.66
2023-05-10T01:11:23.528Z,23.65
2023-05-10T01:12:23.610Z,23.65
2023-05-10T01:13:23.693Z,23.64
2023-05-10T01:14:23.747Z,23.64
2023-05-10T01:15:23.792Z,23.65
2023-05-10T01:16:23.966Z,23.65
2023-05-10T01:17:24.001Z,23.65
2023-05-10T01:18:24.017Z,23.64
2023-05-10T01:19:24.086Z,23.64
2023-05-10T01:20:24.170Z,23.64
2023-05-10T01:21:24.226Z,23.64
2023-05-10T01:22:24.303Z,23.65
2023-05-10T01:23:24.377Z,23.64
2023-05-10T01:24:24.437Z,23.65
2023-05-10T01:25:24.517Z,23.64
2023-05-10T01:26:24.592Z,23.64
2023-05-10T01:27:24.662Z,23.63
2023-05-10T01:28:24.736Z,23.63
2023-05-10T01:29:24.810Z,23.63
2023-05-10T01:30:25.057Z,23.62
2023-05-10T01:31:25.008Z,23.62
2023-05-10T01:32:25.041Z,23.62
2023-05-10T01:33:25.122Z,23.62
2023-05-10T01:34:25.158Z,23.62
2023-05-10T01:35:25.230Z,23.61
2023-05-10T01:36:25.302Z,23.61
2023-05-10T01:37:25.367Z,23.62
2023-05-10T01:38:25.436Z,23.61
2023-05-10T01:39:25.519Z,23.62
2023-05-10T01:40:26.283Z,23.62
2023-05-10T01:41:25.655Z,23.61
2023-05-10T01:42:25.725Z,23.60
2023-05-10T01:43:25.832Z,23.61
2023-05-10T01:44:25.889Z,23.60
2023-05-10T01:45:25.937Z,23.59
2023-05-10T01:46:26.092Z,23.59
2023-05-10T01:47:26.113Z,23.59
2023-05-10T01:48:26.171Z,23.58
2023-05-10T01:49:26.263Z,23.58
2023-05-10T01:50:26.306Z,23.58
2023-05-10T01:51:26.374Z,23.58
2023-05-10T01:52:26.450Z,23.58
2023-05-10T01:53:26.598Z,23.57
2023-05-10T01:54:26.591Z,23.57
2023-05-10T01:55:26.649Z,23.57
2023-05-10T01:56:26.717Z,23.56
2023-05-10T01:57:26.779Z,23.57
2023-05-10T01:58:26.853Z,23.56
2023-05-10T01:59:26.915Z,23.57
2023-05-10T02:00:26.985Z,23.57
2023-05-10T02:01:27.065Z,23.56
2023-05-10T02:02:27.166Z,23.55
2023-05-10T02:03:27.215Z,23.56
2023-05-10T02:04:27.263Z,23.55
2023-05-10T02:05:27.366Z,23.55
2023-05-10T02:06:27.401Z,23.55
2023-05-10T02:07:27.482Z,23.55
2023-05-10T02:08:27.561Z,23.55
2023-05-10T02:09:27.623Z,23.54
2023-05-10T02:10:27.700Z,23.54
2023-05-10T02:11:27.768Z,23.53
2023-05-10T02:12:27.852Z,23.53
2023-05-10T02:13:27.998Z,23.53
2023-05-10T02:14:27.999Z,23.53
2023-05-10T02:15:28.071Z,23.53
2023-05-10T02:16:28.157Z,23.53
2023-05-10T02:17:28.210Z,23.53
2023-05-10T02:18:28.282Z,23.53
2023-05-10T02:19:28.341Z,23.52
2023-05-10T02:20:28.428Z,23.52
2023-05-10T02:21:28.512Z,23.52
2023-05-10T02:22:28.566Z,23.51
2023-05-10T02:23:28.642Z,23.52
2023-05-10T02:24:28.723Z,23.51
2023-05-10T02:25:28.802Z,23.51
2023-05-10T02:26:28.873Z,23.51
2023-05-10T02:27:28.950Z,23.51
2023-05-10T02:28:29.030Z,23.50
2023-05-10T02:29:29.100Z,23.50
2023-05-10T02:30:29.186Z,23.50
2023-05-10T02:31:29.343Z,23.50
2023-05-10T02:32:29.356Z,23.50
2023-05-10T02:33:29.424Z,23.50
2023-05-10T02:34:29.491Z,23.50
2023-05-10T02:35:29.584Z,23.49
2023-05-10T02:36:29.666Z,23.49
2023-05-10T02:37:29.762Z,23.49
2023-05-10T02:38:29.823Z,23.49
2023-05-10T02:39:29.903Z,23.49
2023-05-10T02:40:29.982Z,23.50
2023-05-10T02:41:30.058Z,23.49
2023-05-10T02:42:30.150Z,23.49
2023-05-10T02:43:30.234Z,23.50
2023-05-10T02:44:30.307Z,23.49
2023-05-10T02:45:30.395Z,23.48
2023-05-10T02:46:30.534Z,23.48
2023-05-10T02:47:30.569Z,23.49
2023-05-10T02:48:30.634Z,23.47
2023-05-10T02:49:30.720Z,23.48
2023-05-10T02:50:30.796Z,23.48
2023-05-10T02:51:30.884Z,23.47
2023-05-10T02:52:30.968Z,23.47
2023-05-10T02:53:31.093Z,23.47
2023-05-10T02:54:31.133Z,23.47
2023-05-10T02:55:31.222Z,23.47
2023-05-10T02:56:31.301Z,23.47
2023-05-10T02:57:31.389Z,23.47
2023-05-10T02:58:31.460Z,23.47
2023-05-10T02:59:31.546Z,23.46
2023-05-10T03:00:31.630Z,23.46
2023-05-10T03:01:31.778Z,23.45
2023-05-10T03:02:31.964Z,23.45
2023-05-10T03:03:31.890Z,23.45
2023-05-10T03:04:31.990Z,23.45
2023-05-10T03:05:32.068Z,23.44
2023-05-10T03:06:32.133Z,23.45
2023-05-10T03:07:32.208Z,23.44
2023-05-10T03:08:32.295Z,23.44
2023-05-10T03:09:32.402Z,23.44
2023-05-10T03:10:32.476Z,23.44
2023-05-10T03:11:32.552Z,23.44
2023-05-10T03:12:32.647Z,23.44
2023-05-10T03:13:32.862Z,23.44
2023-05-10T03:14:32.823Z,23.44
2023-05-10T03:15:32.908Z,23.44
2023-05-10T03:16:33.111Z,23.43
2023-05-10T03:17:33.095Z,23.43
2023-05-10T03:18:33.157Z,23.42
2023-05-10T03:19:33.269Z,23.43
2023-05-10T03:20:33.325Z,23.43
2023-05-10T03:21:33.409Z,23.43
2023-05-10T03:22:33.502Z,23.43
2023-05-10T03:23:33.591Z,23.42
2023-05-10T03:24:33.669Z,23.43
2023-05-10T03:25:33.776Z,23.42
2023-05-10T03:26:33.855Z,23.42
2023-05-10T03:27:33.973Z,23.42
2023-05-10T03:28:34.028Z,23.42
2023-05-10T03:29:34.108Z,23.42
2023-05-10T03:30:34.191Z,23.42
2023-05-10T03:31:34.326Z,23.41
2023-05-10T03:32:34.390Z,23.41
2023-05-10T03:33:35.336Z,23.41
2023-05-10T03:34:34.553Z,23.40
2023-05-10T03:35:34.633Z,23.41
2023-05-10T03:36:34.720Z,23.40
2023-05-10T03:37:34.810Z,23.41
2023-05-10T03:38:34.882Z,23.40
2023-05-10T03:39:34.982Z,23.40
2023-05-10T03:40:35.067Z,23.40
2023-05-10T03:41:35.178Z,23.40
2023-05-10T03:42:35.244Z,23.40
2023-05-10T03:43:35.320Z,23.40
2023-05-10T03:44:35.407Z,23.39
2023-05-10T03:45:35.482Z,23.39
2023-05-10T03:46:35.623Z,23.39
2023-05-10T03:47:35.663Z,23.39
2023-05-10T03:48:35.756Z,23.39
2023-05-10T03:49:35.849Z,23.38
2023-05-10T03:50:35.930Z,23.39
2023-05-10T03:51:36.004Z,23.39
2023-05-10T03:52:36.091Z,23.38
2023-05-10T03:53:36.177Z,23.39
2023-05-10T03:54:36.243Z,23.38
2023-05-10T03:55:36.309Z,23.38
2023-05-10T03:56:36.380Z,23.38
2023-05-10T03:57:36.458Z,23.38
2023-05-10T03:58:36.471Z,23.38
2023-05-10T03:59:36.565Z,23.37
2023-05-10T04:00:36.554Z,23.37
2023-05-10T04:01:36.757Z,23.37
2023-05-10T04:02:36.928Z,23.37
2023-05-10T04:03:36.853Z,23.37
2023-05-10T04:04:36.819Z,23.37
2023-05-10T04:05:36.871Z,23.37
2023-05-10T04:06:36.964Z,23.36
2023-05-10T04:07:36.982Z,23.36
2023-05-10T04:08:37.036Z,23.36
2023-05-10T04:09:37.067Z,23.35
2023-05-10T04:10:37.123Z,23.36
2023-05-10T04:11:37.208Z,23.36
2023-05-10T04:12:37.228Z,23.35
2023-05-10T04:13:37.337Z,23.35
2023-05-10T04:14:37.350Z,23.35
2023-05-10T04:15:37.428Z,23.35
2023-05-10T04:16:37.655Z,23.35
2023-05-10T04:17:37.614Z,23.35
2023-05-10T04:18:37.650Z,23.34
2023-05-10T04:19:37.718Z,23.34
2023-05-10T04:20:37.793Z,23.34
2023-05-10T04:21:37.845Z,23.34
2023-05-10T04:22:37.906Z,23.34
2023-05-10T04:23:37.980Z,23.34
2023-05-10T04:24:38.058Z,23.34
2023-05-10T04:25:38.133Z,23.34
2023-05-10T04:26:38.192Z,23.33
2023-05-10T04:27:38.269Z,23.34
2023-05-10T04:28:38.344Z,23.33
2023-05-10T04:29:38.434Z,23.33
2023-05-10T04:30:38.535Z,23.33
2023-05-10T04:31:38.546Z,23.33
2023-05-10T04:32:38.658Z,23.33
2023-05-10T04:33:38.693Z,23.33
2023-05-10T04:34:38.759Z,23.32
2023-05-10T04:35:38.859Z,23.32
2023-05-10T04:36:38.881Z,23.32
2023-05-10T04:37:38.952Z,23.31
2023-05-10T04:38:38.986Z,23.32
2023-05-10T04:39:40.965Z,23.32
2023-05-10T04:40:39.049Z,23.32
2023-05-10T04:41:39.126Z,23.31
2023-05-10T04:42:39.071Z,23.31
2023-05-10T04:43:39.266Z,23.31
2023-05-10T04:44:39.141Z,23.31
2023-05-10T04:45:39.140Z,23.31
2023-05-10T04:46:39.186Z,23.31
2023-05-10T04:47:39.206Z,23.31
2023-05-10T04:48:39.181Z,23.31
2023-05-10T04:49:39.300Z,23.30
2023-05-10T04:50:39.202Z,23.30
2023-05-10T04:51:39.185Z,23.30
2023-05-10T04:52:39.200Z,23.31
2023-05-10T04:53:39.852Z,23.30
2023-05-10T04:54:39.379Z,23.30
2023-05-10T04:55:39.248Z,23.31
2023-05-10T04:56:39.260Z,23.30
2023-05-10T04:57:39.280Z,23.30
2023-05-10T04:58:39.287Z,23.30
2023-05-10T04:59:39.305Z,23.30
2023-05-10T05:00:39.327Z,23.30
2023-05-10T05:01:39.917Z,23.29
2023-05-10T05:02:39.437Z,23.29
2023-05-10T05:03:39.436Z,23.29
2023-05-10T05:04:39.368Z,23.29
2023-05-10T05:05:39.379Z,23.29
2023-05-10T05:06:39.433Z,23.29
2023-05-10T05:07:39.391Z,23.29
2023-05-10T05:08:40.352Z,23.28
2023-05-10T05:09:39.434Z,23.29
2023-05-10T05:10:39.439Z,23.28
2023-05-10T05:11:39.462Z,23.27
2023-05-10T05:12:39.479Z,23.28
2023-05-10T05:13:39.485Z,23.26
2023-05-10T05:14:39.508Z,23.26
2023-05-10T05:15:39.519Z,23.25
2023-05-10T05:16:39.606Z,23.24
2023-05-10T05:17:39.615Z,23.24
2023-05-10T05:18:39.559Z,23.24
2023-05-10T05:19:39.891Z,23.24
2023-05-10T05:20:39.860Z,23.24
2023-05-10T05:21:39.590Z,23.24
2023-05-10T05:22:39.613Z,23.22
2023-05-10T05:23:39.671Z,23.22
2023-05-10T05:24:39.802Z,23.22
2023-05-10T05:25:39.809Z,23.22
2023-05-10T05:26:39.840Z,23.22
2023-05-10T05:27:39.912Z,23.22
2023-05-10T05:28:39.928Z,23.23
2023-05-10T05:29:40.005Z,23.22
2023-05-10T05:30:40.066Z,23.23
2023-05-10T05:31:40.154Z,23.23
2023-05-10T05:32:40.175Z,23.23
2023-05-10T05:33:41.214Z,23.23
2023-05-10T05:34:40.237Z,23.22
2023-05-10T05:35:40.289Z,23.23
2023-05-10T05:36:40.358Z,23.22
2023-05-10T05:37:40.433Z,23.21
2023-05-10T05:38:40.496Z,23.22
2023-05-10T05:39:40.566Z,23.21
2023-05-10T05:40:40.648Z,23.21
2023-05-10T05:41:40.707Z,23.20
2023-05-10T05:42:40.745Z,23.20
2023-05-10T05:43:40.792Z,23.19
2023-05-10T05:44:41.370Z,23.18
2023-05-10T05:45:40.999Z,23.19
2023-05-10T05:46:41.060Z,23.19
2023-05-10T05:47:41.180Z,23.19
2023-05-10T05:48:41.173Z,23.19
2023-05-10T05:49:42.399Z,23.18
2023-05-10T05:50:41.368Z,23.18
2023-05-10T05:51:41.390Z,23.18
2023-05-10T05:52:41.436Z,23.18
2023-05-10T05:53:41.502Z,23.17
2023-05-10T05:54:41.881Z,23.17
2023-05-10T05:55:41.631Z,23.17
2023-05-10T05:56:41.675Z,23.17
2023-05-10T05:57:41.939Z,23.17
2023-05-10T05:58:41.812Z,23.17
2023-05-10T05:59:42.378Z,23.16
2023-05-10T06:00:41.973Z,23.17
2023-05-10T06:01:42.042Z,23.17
2023-05-10T06:02:49.555Z,23.16
2023-05-10T06:03:42.186Z,23.16
2023-05-10T06:04:44.683Z,23.17
2023-05-10T06:05:42.134Z,23.16
2023-05-10T06:06:42.195Z,23.15
2023-05-10T06:07:42.397Z,23.14
2023-05-10T06:08:42.185Z,23.14
2023-05-10T06:09:42.206Z,23.15
2023-05-10T06:10:42.240Z,23.15
2023-05-10T06:11:42.259Z,23.15
2023-05-10T06:12:42.409Z,23.15
2023-05-10T06:13:42.882Z,23.15
2023-05-10T06:14:42.376Z,23.14
2023-05-10T06:15:42.350Z,23.15
2023-05-10T06:16:42.410Z,23.14
2023-05-10T06:17:42.402Z,23.15
2023-05-10T06:18:42.422Z,23.15
2023-05-10T06:19:42.442Z,23.15
2023-05-10T06:20:42.443Z,23.15
2023-05-10T06:21:42.491Z,23.15
2023-05-10T06:22:42.490Z,23.15
2023-05-10T06:23:42.524Z,23.15
2023-05-10T06:24:42.887Z,23.15
2023-05-10T06:25:42.563Z,23.15
2023-05-10T06:26:42.629Z,23.15
2023-05-10T06:27:42.589Z,23.15
2023-05-10T06:28:42.614Z,23.14
2023-05-10T06:29:42.891Z,23.14
2023-05-10T06:30:42.673Z,23.14
2023-05-10T06:31:42.697Z,23.15
2023-05-10T06:32:42.739Z,23.14
2023-05-10T06:33:42.737Z,23.14
2023-05-10T06:34:42.898Z,23.15
2023-05-10T06:35:42.757Z,23.15
2023-05-10T06:36:43.388Z,23.16
2023-05-10T06:37:42.826Z,23.16
2023-05-10T06:38:42.892Z,23.15
2023-05-10T06:39:42.849Z,23.15
2023-05-10T06:40:42.883Z,23.15
2023-05-10T06:41:42.903Z,23.15
2023-05-10T06:42:42.950Z,23.14
2023-05-10T06:43:43.025Z,23.15
2023-05-10T06:44:43.406Z,23.15
2023-05-10T06:45:43.929Z,23.15
2023-05-10T06:46:43.275Z,23.15
2023-05-10T06:47:44.240Z,23.15
2023-05-10T06:48:43.424Z,23.16
2023-05-10T06:49:43.285Z,23.15
2023-05-10T06:50:43.404Z,23.15
2023-05-10T06:51:44.367Z,23.15
2023-05-10T06:52:44.067Z,23.14
2023-05-10T06:53:43.504Z,23.15
2023-05-10T06:55:43.587Z,23.14
2023-05-10T06:56:43.597Z,23.14
2023-05-10T06:57:43.656Z,23.15
2023-05-10T06:58:43.658Z,23.15
2023-05-10T06:59:43.660Z,23.15
2023-05-10T07:00:46.950Z,23.15
2023-05-10T07:01:43.769Z,23.14
2023-05-10T07:02:43.767Z,23.14
2023-05-10T07:03:43.733Z,23.15
2023-05-10T07:04:43.957Z,23.15
2023-05-10T07:05:43.813Z,23.15
2023-05-10T07:06:43.777Z,23.15
2023-05-10T07:07:43.805Z,23.15
2023-05-10T07:08:43.832Z,23.15
2023-05-10T07:09:43.862Z,23.14
2023-05-10T07:10:43.856Z,23.15
2023-05-10T07:11:43.863Z,23.14
2023-05-10T07:12:43.935Z,23.15
2023-05-10T07:13:43.952Z,23.15
2023-05-10T07:14:44.407Z,23.15
2023-05-10T07:15:43.993Z,23.15
2023-05-10T07:16:44.457Z,23.16
2023-05-10T07:17:45.802Z,23.15
2023-05-10T07:18:44.112Z,23.15
2023-05-10T07:19:44.061Z,23.14
2023-05-10T07:20:44.082Z,23.15
2023-05-10T07:21:44.107Z,23.14
2023-05-10T07:22:44.140Z,23.15
2023-05-10T07:23:45.222Z,23.15
2023-05-10T07:24:44.177Z,23.15
2023-05-10T07:25:44.228Z,23.15
2023-05-10T07:26:44.477Z,23.16
2023-05-10T07:27:44.248Z,23.17
2023-05-10T07:28:44.408Z,23.16
2023-05-10T07:29:44.289Z,23.16
2023-05-10T07:30:44.360Z,23.15
2023-05-10T07:31:44.471Z,23.16
2023-05-10T07:32:44.389Z,23.16
2023-05-10T07:33:44.421Z,23.15
2023-05-10T07:34:44.438Z,23.15
2023-05-10T07:35:44.472Z,23.15
2023-05-10T07:36:44.500Z,23.15
2023-05-10T07:37:47.700Z,23.15
2023-05-10T07:38:44.520Z,23.16
2023-05-10T07:39:44.922Z,23.15
2023-05-10T07:40:44.583Z,23.14
2023-05-10T07:41:45.618Z,23.14
2023-05-10T07:42:44.616Z,23.14
2023-05-10T07:43:44.639Z,23.13
2023-05-10T07:44:44.944Z,23.13
2023-05-10T07:45:44.930Z,23.14
2023-05-10T07:46:44.703Z,23.13
2023-05-10T07:47:44.824Z,23.14
2023-05-10T07:48:44.793Z,23.14
2023-05-10T07:49:44.948Z,23.14
2023-05-10T07:50:44.912Z,23.15
2023-05-10T07:51:45.109Z,23.14
2023-05-10T07:52:44.998Z,23.14
2023-05-10T07:53:44.887Z,23.15
2023-05-10T07:54:45.413Z,23.15
2023-05-10T07:55:44.946Z,23.15
2023-05-10T07:57:16.874Z,23.15
2023-05-10T07:57:45.447Z,23.14
2023-05-10T07:58:45.025Z,23.15
2023-05-10T07:59:45.450Z,23.14
2023-05-10T08:00:45.080Z,23.14
2023-05-10T08:01:45.418Z,23.13
2023-05-10T08:02:45.271Z,23.13
2023-05-10T08:03:45.218Z,23.14
2023-05-10T08:04:45.452Z,23.15
2023-05-10T08:05:45.248Z,23.14
2023-05-10T08:06:45.419Z,23.15
2023-05-10T08:07:45.401Z,23.14
2023-05-10T08:08:52.721Z,23.15
2023-05-10T08:09:45.360Z,23.14
2023-05-10T08:10:45.358Z,23.14
2023-05-10T08:11:45.386Z,23.15
2023-05-10T08:12:45.438Z,23.14
2023-05-10T08:13:45.459Z,23.15
2023-05-10T08:14:45.926Z,23.16
2023-05-10T08:15:45.533Z,23.15
2023-05-10T08:16:45.522Z,23.15
2023-05-10T08:17:45.594Z,23.15
2023-05-10T08:18:45.627Z,23.15
2023-05-10T08:19:45.929Z,23.15
2023-05-10T08:20:45.646Z,23.14
2023-05-10T08:21:45.664Z,23.15
2023-05-10T08:22:46.769Z,23.15
2023-05-10T08:23:45.722Z,23.15
2023-05-10T08:24:45.921Z,23.15
2023-05-10T08:25:45.770Z,23.15
2023-05-10T08:26:45.819Z,23.15
2023-05-10T08:27:45.824Z,23.17
2023-05-10T08:28:45.856Z,23.17
2023-05-10T08:29:50.108Z,23.16
2023-05-10T08:30:45.868Z,23.15
2023-05-10T08:31:45.909Z,23.15
2023-05-10T08:32:45.960Z,23.15
2023-05-10T08:33:45.942Z,23.15
2023-05-10T08:34:46.421Z,23.15
2023-05-10T08:35:46.018Z,23.15
2023-05-10T08:36:46.061Z,23.16
2023-05-10T08:37:46.068Z,23.16
2023-05-10T08:38:46.083Z,23.15
2023-05-10T08:39:46.470Z,23.16
2023-05-10T08:40:47.129Z,23.17
2023-05-10T08:41:46.428Z,23.16
2023-05-10T08:42:46.149Z,23.17
2023-05-10T08:43:49.436Z,23.16
2023-05-10T08:44:49.348Z,23.15
2023-05-10T08:45:46.461Z,23.15
2023-05-10T08:46:46.278Z,23.17
2023-05-10T08:47:46.343Z,23.17
2023-05-10T08:48:46.282Z,23.17
2023-05-10T08:49:46.444Z,23.16
2023-05-10T08:50:46.460Z,23.16
2023-05-10T08:51:46.354Z,23.17
2023-05-10T08:52:46.373Z,23.17
2023-05-10T08:53:46.457Z,23.16
2023-05-10T08:54:46.454Z,23.16
2023-05-10T08:55:46.452Z,23.17
2023-05-10T08:56:48.628Z,23.16
2023-05-10T08:57:46.486Z,23.17
2023-05-10T08:58:46.939Z,23.17
2023-05-10T08:59:46.617Z,23.17
2023-05-10T09:00:46.959Z,23.18
2023-05-10T09:01:46.528Z,23.19
2023-05-10T09:02:46.565Z,23.18
2023-05-10T09:03:46.604Z,23.18
2023-05-10T09:04:47.024Z,23.18
2023-05-10T09:05:46.613Z,23.18
2023-05-10T09:06:46.617Z,23.19
2023-05-10T09:07:47.273Z,23.18
2023-05-10T09:08:46.657Z,23.18
2023-05-10T09:09:46.681Z,23.18
2023-05-10T09:10:46.942Z,23.20
2023-05-10T09:11:46.706Z,23.19
2023-05-10T09:12:46.731Z,23.20
2023-05-10T09:13:46.760Z,23.21
2023-05-10T09:14:47.732Z,23.20
2023-05-10T09:15:46.967Z,23.19
2023-05-10T09:16:46.847Z,23.19
2023-05-10T09:17:46.856Z,23.19
2023-05-10T09:18:46.928Z,23.19
2023-05-10T09:19:47.865Z,23.20
2023-05-10T09:20:46.946Z,23.20
2023-05-10T09:21:46.921Z,23.20
2023-05-10T09:22:46.933Z,23.20
2023-05-10T09:23:48.451Z,23.20
2023-05-10T09:24:46.959Z,23.21
2023-05-10T09:25:47.475Z,23.21
2023-05-10T09:26:46.967Z,23.21
2023-05-10T09:27:46.991Z,23.21
2023-05-10T09:28:46.991Z,23.20
2023-05-10T09:29:47.453Z,23.20
2023-05-10T09:30:47.090Z,23.21
2023-05-10T09:31:47.108Z,23.22
2023-05-10T09:32:47.760Z,23.21
2023-05-10T09:33:47.068Z,23.22
2023-05-10T09:34:47.452Z,23.21
2023-05-10T09:35:47.452Z,23.21
2023-05-10T09:36:47.109Z,23.21
2023-05-10T09:37:47.164Z,23.21
2023-05-10T09:38:47.459Z,23.21
2023-05-10T09:39:47.171Z,23.21
2023-05-10T09:40:47.191Z,23.21
2023-05-10T09:41:47.955Z,23.21
2023-05-10T09:42:47.225Z,23.21
2023-05-10T09:43:47.240Z,23.22
2023-05-10T09:44:47.279Z,23.22
2023-05-10T09:45:47.465Z,23.21
2023-05-10T09:46:47.309Z,23.22
2023-05-10T09:47:47.392Z,23.23
2023-05-10T09:48:47.341Z,23.23
2023-05-10T09:49:47.453Z,23.23
2023-05-10T09:50:47.379Z,23.23
2023-05-10T09:51:47.400Z,23.24
2023-05-10T09:52:47.427Z,23.25
2023-05-10T09:53:47.468Z,23.25
2023-05-10T09:54:47.456Z,23.24
2023-05-10T09:56:03.078Z,23.25
2023-05-10T09:56:47.958Z,23.25
2023-05-10T09:57:47.506Z,23.25
2023-05-10T09:58:47.519Z,23.25
2023-05-10T09:59:47.553Z,23.26
2023-05-10T10:00:47.962Z,23.26
2023-05-10T10:01:47.627Z,23.26
2023-05-10T10:02:47.650Z,23.27
2023-05-10T10:03:47.673Z,23.27
2023-05-10T10:04:47.665Z,23.28
2023-05-10T10:05:47.981Z,23.28
2023-05-10T10:06:47.675Z,23.29
2023-05-10T10:07:47.694Z,23.28
2023-05-10T10:08:47.720Z,23.29
2023-05-10T10:09:47.963Z,23.29
2023-05-10T10:10:47.772Z,23.29
2023-05-10T10:11:47.793Z,23.29
2023-05-10T10:12:47.803Z,23.29
2023-05-10T10:13:47.827Z,23.30
2023-05-10T10:14:47.876Z,23.30
2023-05-10T10:15:47.987Z,23.30
2023-05-10T10:16:59.883Z,23.30
2023-05-10T10:17:48.039Z,23.29
2023-05-10T10:18:48.545Z,23.29
2023-05-10T10:19:48.031Z,23.30
2023-05-10T10:20:48.473Z,23.31
2023-05-10T10:21:48.041Z,23.31
2023-05-10T10:22:48.068Z,23.31
2023-05-10T10:23:48.096Z,23.31
2023-05-10T10:24:48.108Z,23.32
2023-05-10T10:25:48.471Z,23.32
2023-05-10T10:26:48.140Z,23.32
2023-05-10T10:27:48.159Z,23.33
2023-05-10T10:28:48.176Z,23.32
2023-05-10T10:29:48.196Z,23.32
2023-05-10T10:30:48.478Z,23.32
2023-05-10T10:31:48.293Z,23.32
2023-05-10T10:32:48.255Z,23.32
2023-05-10T10:33:48.435Z,23.33
2023-05-10T10:34:48.284Z,23.33
2023-05-10T10:35:48.512Z,23.33
2023-05-10T10:36:48.322Z,23.33
2023-05-10T10:37:48.368Z,23.33
2023-05-10T10:38:48.488Z,23.33
2023-05-10T10:39:49.475Z,23.35
2023-05-10T10:40:48.626Z,23.34
2023-05-10T10:41:48.975Z,23.34
2023-05-10T10:42:48.713Z,23.34
2023-05-10T10:43:48.802Z,23.34
2023-05-10T10:44:48.863Z,23.35
2023-05-10T10:45:48.950Z,23.35
2023-05-10T10:46:49.532Z,23.35
2023-05-10T10:47:49.110Z,23.35
2023-05-10T10:48:49.167Z,23.36
2023-05-10T10:49:49.203Z,23.36
2023-05-10T10:50:49.274Z,23.36
2023-05-10T10:51:49.378Z,23.36
2023-05-10T10:52:49.513Z,23.37
2023-05-10T10:53:49.501Z,23.36
2023-05-10T10:54:49.588Z,23.37
2023-05-10T10:55:50.326Z,23.38
2023-05-10T10:56:49.840Z,23.38
2023-05-10T10:57:49.987Z,23.38
2023-05-10T10:58:49.936Z,23.38
2023-05-10T10:59:50.007Z,23.39
2023-05-10T11:00:50.086Z,23.39
2023-05-10T11:01:50.498Z,23.38
2023-05-10T11:02:50.325Z,23.39
2023-05-10T11:03:50.367Z,23.38
2023-05-10T11:04:50.557Z,23.39
2023-05-10T11:05:50.531Z,23.39
2023-05-10T11:06:50.581Z,23.39
2023-05-10T11:07:50.691Z,23.39
2023-05-10T11:08:50.726Z,23.39
2023-05-10T11:09:50.989Z,23.40
2023-05-10T11:10:50.927Z,23.41
2023-05-10T11:11:50.987Z,23.40
2023-05-10T11:12:51.069Z,23.40
2023-05-10T11:13:51.720Z,23.40
2023-05-10T11:14:51.241Z,23.41
2023-05-10T11:15:51.521Z,23.40
2023-05-10T11:16:51.499Z,23.41
2023-05-10T11:17:51.503Z,23.41
2023-05-10T11:18:51.634Z,23.41
2023-05-10T11:19:51.662Z,23.42
2023-05-10T11:20:52.016Z,23.43
2023-05-10T11:21:51.826Z,23.42
2023-05-10T11:22:51.912Z,23.42
2023-05-10T11:23:51.993Z,23.41
2023-05-10T11:24:52.040Z,23.42
2023-05-10T11:25:52.188Z,23.42
2023-05-10T11:26:52.243Z,23.42
2023-05-10T11:27:53.289Z,23.42
2023-05-10T11:28:52.360Z,23.41
2023-05-10T11:29:52.431Z,23.43
2023-05-10T11:30:53.025Z,23.43
2023-05-10T11:31:52.620Z,23.43
2023-05-10T11:32:52.728Z,23.43
2023-05-10T11:33:53.773Z,23.44
2023-05-10T11:34:52.864Z,23.44
2023-05-10T11:35:52.952Z,23.44
2023-05-10T11:36:53.032Z,23.45
2023-05-10T11:37:53.112Z,23.46
2023-05-10T11:38:53.200Z,23.45
2023-05-10T11:39:53.424Z,23.46
2023-05-10T11:40:53.389Z,23.45
2023-05-10T11:41:53.453Z,23.45
2023-05-10T11:42:54.007Z,23.45
2023-05-10T11:43:53.623Z,23.45
2023-05-10T11:44:53.706Z,23.46
2023-05-10T11:45:53.850Z,23.45
2023-05-10T11:46:53.867Z,23.46
2023-05-10T11:47:53.980Z,23.46
2023-05-10T11:48:54.043Z,23.46
2023-05-10T11:49:54.122Z,23.46
2023-05-10T11:50:54.196Z,23.46
2023-05-10T11:51:54.277Z,23.47
2023-05-10T11:52:54.399Z,23.47
2023-05-10T11:53:54.429Z,23.47
2023-05-10T11:54:54.512Z,23.46
2023-05-10T11:55:54.612Z,23.46
2023-05-10T11:56:54.666Z,23.46
2023-05-10T11:57:54.750Z,23.46
2023-05-10T11:58:55.003Z,23.46
2023-05-10T11:59:54.913Z,23.46
2023-05-10T12:00:54.994Z,23.46
2023-05-10T12:01:55.503Z,23.46
2023-05-10T12:02:55.291Z,23.47
2023-05-10T12:03:55.405Z,23.46
2023-05-10T12:04:55.358Z,23.46
2023-05-10T12:05:55.379Z,23.46
2023-05-10T12:06:55.447Z,23.46
2023-05-10T12:07:55.499Z,23.46
2023-05-10T12:08:55.579Z,23.46
2023-05-10T12:09:55.662Z,23.47
2023-05-10T12:10:55.747Z,23.46
2023-05-10T12:11:56.056Z,23.46
2023-05-10T12:12:55.921Z,23.46
2023-05-10T12:14:03.381Z,23.46
2023-05-10T12:14:55.999Z,23.45
2023-05-10T12:15:56.599Z,23.46
2023-05-10T12:16:56.066Z,23.46
2023-05-10T12:17:59.765Z,23.47
2023-05-10T12:18:56.168Z,23.46
2023-05-10T12:19:56.066Z,23.47
2023-05-10T12:20:56.070Z,23.47
2023-05-10T12:21:56.087Z,23.47
2023-05-10T12:22:57.274Z,23.48
2023-05-10T12:23:56.085Z,23.48
2023-05-10T12:24:56.100Z,23.48
2023-05-10T12:25:56.125Z,23.48
2023-05-10T12:26:56.508Z,23.49
2023-05-10T12:27:56.146Z,23.49
2023-05-10T12:28:56.137Z,23.48
2023-05-10T12:29:56.140Z,23.48
2023-05-10T12:30:56.164Z,23.48
2023-05-10T12:31:56.273Z,23.48
2023-05-10T12:32:57.061Z,23.49
2023-05-10T12:33:56.190Z,23.48
2023-05-10T12:34:56.208Z,23.48
2023-05-10T12:35:56.209Z,23.48
2023-05-10T12:36:56.227Z,23.48
2023-05-10T12:37:56.250Z,23.47
2023-05-10T12:38:56.248Z,23.47
2023-05-10T12:39:56.255Z,23.47
2023-05-10T12:40:56.327Z,23.47
2023-05-10T12:41:56.302Z,23.47
2023-05-10T12:42:56.566Z,23.47
2023-05-10T12:43:56.487Z,23.47
2023-05-10T12:44:57.524Z,23.48
2023-05-10T12:45:56.647Z,23.48
2023-05-10T12:46:56.694Z,23.48
2023-05-10T12:47:56.789Z,23.48
2023-05-10T12:49:07.615Z,23.49
2023-05-10T12:49:56.815Z,23.48
2023-05-10T12:50:56.817Z,23.48
2023-05-10T12:51:56.830Z,23.48
2023-05-10T12:52:56.839Z,23.49
2023-05-10T12:53:56.851Z,23.48